sensor_id;sensor_type;location;lat;lon;timestamp;P1;durP1;ratioP1;P2;durP2;ratioP2
79261;SDS011;68699;48.220;16.358;2023-04-25T00:00:01;1.57;;;1.50;;
79261;SDS011;68699;48.220;16.358;2023-04-25T00:02:28;1.90;;;1.73;;
79261;SDS011;68699;48.220;16.358;2023-04-25T00:04:56;1.83;;;1.73;;
79261;SDS011;68699;48.220;16.358;2023-04-25T00:07:24;1.90;;;1.80;;
79261;SDS011;68699;48.220;16.358;2023-04-25T00:09:51;1.60;;;1.50;;
79261;SDS011;68699;48.220;16.358;2023-04-25T00:12:17;1.87;;;1.77;;
79261;SDS011;68699;48.220;16.358;2023-04-25T00:14:43;1.87;;;1.77;;
79261;SDS011;68699;48.220;16.358;2023-04-25T00:17:10;2.00;;;1.70;;
79261;SDS011;68699;48.220;16.358;2023-04-25T00:19:36;2.87;;;1.87;;
79261;SDS011;68699;48.220;16.358;2023-04-25T00:22:03;1.80;;;1.70;;
79261;SDS011;68699;48.220;16.358;2023-04-25T00:24:30;1.60;;;1.50;;
79261;SDS011;68699;48.220;16.358;2023-04-25T00:26:56;1.67;;;1.57;;
79261;SDS011;68699;48.220;16.358;2023-04-25T00:29:23;1.90;;;1.80;;
79261;SDS011;68699;48.220;16.358;2023-04-25T00:31:49;1.90;;;1.80;;
79261;SDS011;68699;48.220;16.358;2023-04-25T00:34:15;1.97;;;1.87;;
79261;SDS011;68699;48.220;16.358;2023-04-25T00:36:41;1.90;;;1.80;;
79261;SDS011;68699;48.220;16.358;2023-04-25T00:39:07;2.70;;;1.90;;
79261;SDS011;68699;48.220;16.358;2023-04-25T00:41:33;2.13;;;1.90;;
79261;SDS011;68699;48.220;16.358;2023-04-25T00:44:00;2.13;;;2.00;;
79261;SDS011;68699;48.220;16.358;2023-04-25T00:46:26;1.90;;;1.80;;
79261;SDS011;68699;48.220;16.358;2023-04-25T00:48:52;1.83;;;1.73;;
79261;SDS011;68699;48.220;16.358;2023-04-25T00:51:19;2.33;;;1.90;;
79261;SDS011;68699;48.220;16.358;2023-04-25T00:53:46;2.73;;;2.00;;
79261;SDS011;68699;48.220;16.358;2023-04-25T00:56:12;2.80;;;2.07;;
79261;SDS011;68699;48.220;16.358;2023-04-25T00:58:38;2.07;;;1.97;;
79261;SDS011;68699;48.220;16.358;2023-04-25T01:01:06;1.70;;;1.60;;
79261;SDS011;68699;48.220;16.358;2023-04-25T01:03:36;2.10;;;1.83;;
79261;SDS011;68699;48.220;16.358;2023-04-25T01:06:07;1.93;;;1.80;;
79261;SDS011;68699;48.220;16.358;2023-04-25T01:08:34;2.60;;;2.07;;
79261;SDS011;68699;48.220;16.358;2023-04-25T01:11:00;2.17;;;2.07;;
79261;SDS011;68699;48.220;16.358;2023-04-25T01:13:27;2.27;;;1.90;;
79261;SDS011;68699;48.220;16.358;2023-04-25T01:15:53;2.10;;;2.00;;
79261;SDS011;68699;48.220;16.358;2023-04-25T01:18:19;2.57;;;2.00;;
79261;SDS011;68699;48.220;16.358;2023-04-25T01:20:46;2.43;;;2.17;;
79261;SDS011;68699;48.220;16.358;2023-04-25T01:23:12;2.40;;;2.20;;
79261;SDS011;68699;48.220;16.358;2023-04-25T01:25:39;2.47;;;2.27;;
79261;SDS011;68699;48.220;16.358;2023-04-25T01:28:06;2.40;;;2.20;;
79261;SDS011;68699;48.220;16.358;2023-04-25T01:30:32;2.03;;;1.83;;
79261;SDS011;68699;48.220;16.358;2023-04-25T01:32:58;2.60;;;2.20;;
79261;SDS011;68699;48.220;16.358;2023-04-25T01:35:26;2.63;;;2.10;;
79261;SDS011;68699;48.220;16.358;2023-04-25T01:37:52;2.20;;;2.10;;
79261;SDS011;68699;48.220;16.358;2023-04-25T01:40:18;2.03;;;1.93;;
79261;SDS011;68699;48.220;16.358;2023-04-25T01:42:46;2.10;;;1.90;;
79261;SDS011;68699;48.220;16.358;2023-04-25T01:45:13;2.03;;;1.90;;
79261;SDS011;68699;48.220;16.358;2023-04-25T01:47:39;2.30;;;2.10;;
79261;SDS011;68699;48.220;16.358;2023-04-25T01:50:07;2.93;;;2.30;;
79261;SDS011;68699;48.220;16.358;2023-04-25T01:52:35;2.10;;;1.90;;
79261;SDS011;68699;48.220;16.358;2023-04-25T01:55:01;3.83;;;2.40;;
79261;SDS011;68699;48.220;16.358;2023-04-25T01:57:27;2.23;;;2.13;;
79261;SDS011;68699;48.220;16.358;2023-04-25T01:59:55;3.87;;;2.50;;
79261;SDS011;68699;48.220;16.358;2023-04-25T02:02:24;2.10;;;1.90;;
79261;SDS011;68699;48.220;16.358;2023-04-25T02:04:51;2.53;;;2.20;;
79261;SDS011;68699;48.220;16.358;2023-04-25T02:07:17;1.90;;;1.80;;
79261;SDS011;68699;48.220;16.358;2023-04-25T02:09:43;3.03;;;2.10;;
79261;SDS011;68699;48.220;16.358;2023-04-25T02:12:10;2.30;;;2.03;;
79261;SDS011;68699;48.220;16.358;2023-04-25T02:14:36;2.20;;;2.00;;
79261;SDS011;68699;48.220;16.358;2023-04-25T02:17:03;2.40;;;2.20;;
79261;SDS011;68699;48.220;16.358;2023-04-25T02:19:30;2.73;;;2.20;;
79261;SDS011;68699;48.220;16.358;2023-04-25T02:21:56;2.60;;;2.40;;
79261;SDS011;68699;48.220;16.358;2023-04-25T02:24:23;2.50;;;2.30;;
79261;SDS011;68699;48.220;16.358;2023-04-25T02:26:49;2.40;;;2.20;;
79261;SDS011;68699;48.220;16.358;2023-04-25T02:29:15;2.37;;;2.03;;
79261;SDS011;68699;48.220;16.358;2023-04-25T02:31:42;2.30;;;2.20;;
79261;SDS011;68699;48.220;16.358;2023-04-25T02:34:08;2.87;;;2.57;;
79261;SDS011;68699;48.220;16.358;2023-04-25T02:36:34;2.77;;;2.57;;
79261;SDS011;68699;48.220;16.358;2023-04-25T02:39:01;2.50;;;2.30;;
79261;SDS011;68699;48.220;16.358;2023-04-25T02:41:28;2.40;;;2.17;;
79261;SDS011;68699;48.220;16.358;2023-04-25T02:43:54;2.30;;;2.20;;
79261;SDS011;68699;48.220;16.358;2023-04-25T02:46:20;2.47;;;2.27;;
79261;SDS011;68699;48.220;16.358;2023-04-25T02:48:46;2.30;;;2.20;;
79261;SDS011;68699;48.220;16.358;2023-04-25T02:51:13;2.87;;;2.50;;
79261;SDS011;68699;48.220;16.358;2023-04-25T02:53:41;2.30;;;2.10;;
79261;SDS011;68699;48.220;16.358;2023-04-25T02:56:07;2.87;;;2.43;;
79261;SDS011;68699;48.220;16.358;2023-04-25T02:58:33;2.97;;;2.50;;
79261;SDS011;68699;48.220;16.358;2023-04-25T03:00:59;4.47;;;2.90;;
79261;SDS011;68699;48.220;16.358;2023-04-25T03:03:25;2.97;;;2.77;;
79261;SDS011;68699;48.220;16.358;2023-04-25T03:05:52;2.50;;;2.30;;
79261;SDS011;68699;48.220;16.358;2023-04-25T03:08:18;3.10;;;2.80;;
79261;SDS011;68699;48.220;16.358;2023-04-25T03:10:44;2.90;;;2.63;;
79261;SDS011;68699;48.220;16.358;2023-04-25T03:13:11;2.67;;;2.47;;
79261;SDS011;68699;48.220;16.358;2023-04-25T03:15:37;2.90;;;2.70;;
79261;SDS011;68699;48.220;16.358;2023-04-25T03:18:03;2.90;;;2.60;;
79261;SDS011;68699;48.220;16.358;2023-04-25T03:20:29;2.77;;;2.53;;
79261;SDS011;68699;48.220;16.358;2023-04-25T03:22:56;2.60;;;2.40;;
79261;SDS011;68699;48.220;16.358;2023-04-25T03:25:22;2.63;;;2.43;;
79261;SDS011;68699;48.220;16.358;2023-04-25T03:27:48;3.23;;;2.93;;
79261;SDS011;68699;48.220;16.358;2023-04-25T03:30:15;3.00;;;2.80;;
79261;SDS011;68699;48.220;16.358;2023-04-25T03:32:41;2.80;;;2.60;;
79261;SDS011;68699;48.220;16.358;2023-04-25T03:35:07;3.20;;;2.80;;
79261;SDS011;68699;48.220;16.358;2023-04-25T03:37:33;2.50;;;2.30;;
79261;SDS011;68699;48.220;16.358;2023-04-25T03:40:00;2.50;;;2.20;;
79261;SDS011;68699;48.220;16.358;2023-04-25T03:42:26;3.20;;;2.70;;
79261;SDS011;68699;48.220;16.358;2023-04-25T03:44:52;3.23;;;2.80;;
79261;SDS011;68699;48.220;16.358;2023-04-25T03:47:18;4.70;;;2.80;;
79261;SDS011;68699;48.220;16.358;2023-04-25T03:49:44;2.70;;;2.50;;
79261;SDS011;68699;48.220;16.358;2023-04-25T03:52:10;2.63;;;2.43;;
79261;SDS011;68699;48.220;16.358;2023-04-25T03:54:36;3.03;;;2.80;;
79261;SDS011;68699;48.220;16.358;2023-04-25T03:57:03;2.57;;;2.37;;
79261;SDS011;68699;48.220;16.358;2023-04-25T03:59:29;2.60;;;2.40;;
79261;SDS011;68699;48.220;16.358;2023-04-25T04:01:55;3.13;;;2.60;;
79261;SDS011;68699;48.220;16.358;2023-04-25T04:04:21;3.73;;;2.70;;
79261;SDS011;68699;48.220;16.358;2023-04-25T04:06:48;4.10;;;3.00;;
79261;SDS011;68699;48.220;16.358;2023-04-25T04:09:14;3.77;;;2.90;;
79261;SDS011;68699;48.220;16.358;2023-04-25T04:11:41;3.00;;;2.70;;
79261;SDS011;68699;48.220;16.358;2023-04-25T04:14:07;2.97;;;2.77;;
79261;SDS011;68699;48.220;16.358;2023-04-25T04:16:35;2.80;;;2.60;;
79261;SDS011;68699;48.220;16.358;2023-04-25T04:19:02;3.40;;;2.77;;
79261;SDS011;68699;48.220;16.358;2023-04-25T04:21:28;3.73;;;3.00;;
79261;SDS011;68699;48.220;16.358;2023-04-25T04:23:55;3.00;;;2.80;;
79261;SDS011;68699;48.220;16.358;2023-04-25T04:26:22;2.90;;;2.70;;
79261;SDS011;68699;48.220;16.358;2023-04-25T04:28:49;3.00;;;2.80;;
79261;SDS011;68699;48.220;16.358;2023-04-25T04:31:21;3.67;;;3.37;;
79261;SDS011;68699;48.220;16.358;2023-04-25T04:33:49;3.50;;;3.20;;
79261;SDS011;68699;48.220;16.358;2023-04-25T04:36:17;3.07;;;2.77;;
79261;SDS011;68699;48.220;16.358;2023-04-25T04:38:48;2.97;;;2.77;;
79261;SDS011;68699;48.220;16.358;2023-04-25T04:41:14;3.30;;;3.00;;
79261;SDS011;68699;48.220;16.358;2023-04-25T04:43:41;3.20;;;2.90;;
79261;SDS011;68699;48.220;16.358;2023-04-25T04:46:08;2.93;;;2.73;;
79261;SDS011;68699;48.220;16.358;2023-04-25T04:48:35;2.90;;;2.70;;
79261;SDS011;68699;48.220;16.358;2023-04-25T04:51:01;3.30;;;2.90;;
79261;SDS011;68699;48.220;16.358;2023-04-25T04:53:27;2.93;;;2.73;;
79261;SDS011;68699;48.220;16.358;2023-04-25T04:55:53;3.57;;;3.27;;
79261;SDS011;68699;48.220;16.358;2023-04-25T04:58:20;3.10;;;2.80;;
79261;SDS011;68699;48.220;16.358;2023-04-25T05:00:46;3.17;;;2.87;;
79261;SDS011;68699;48.220;16.358;2023-04-25T05:03:12;3.80;;;2.77;;
79261;SDS011;68699;48.220;16.358;2023-04-25T05:05:38;3.30;;;3.00;;
79261;SDS011;68699;48.220;16.358;2023-04-25T05:08:08;3.30;;;3.00;;
79261;SDS011;68699;48.220;16.358;2023-04-25T05:10:34;3.37;;;3.07;;
79261;SDS011;68699;48.220;16.358;2023-04-25T05:13:00;2.90;;;2.70;;
79261;SDS011;68699;48.220;16.358;2023-04-25T05:15:26;3.70;;;3.00;;
79261;SDS011;68699;48.220;16.358;2023-04-25T05:17:52;3.27;;;2.97;;
79261;SDS011;68699;48.220;16.358;2023-04-25T05:20:18;3.50;;;3.03;;
79261;SDS011;68699;48.220;16.358;2023-04-25T05:22:48;3.50;;;3.20;;
79261;SDS011;68699;48.220;16.358;2023-04-25T05:25:14;5.60;;;4.00;;
79261;SDS011;68699;48.220;16.358;2023-04-25T05:27:40;3.10;;;2.80;;
79261;SDS011;68699;48.220;16.358;2023-04-25T05:30:06;3.40;;;3.10;;
79261;SDS011;68699;48.220;16.358;2023-04-25T05:32:34;3.40;;;3.20;;
79261;SDS011;68699;48.220;16.358;2023-04-25T05:35:00;3.70;;;3.40;;
79261;SDS011;68699;48.220;16.358;2023-04-25T05:37:27;3.90;;;3.60;;
79261;SDS011;68699;48.220;16.358;2023-04-25T05:39:56;3.83;;;3.53;;
79261;SDS011;68699;48.220;16.358;2023-04-25T05:42:22;3.93;;;3.40;;
79261;SDS011;68699;48.220;16.358;2023-04-25T05:44:48;3.50;;;3.20;;
79261;SDS011;68699;48.220;16.358;2023-04-25T05:47:14;3.70;;;3.40;;
79261;SDS011;68699;48.220;16.358;2023-04-25T05:49:41;3.50;;;3.20;;
79261;SDS011;68699;48.220;16.358;2023-04-25T05:52:07;4.00;;;3.60;;
79261;SDS011;68699;48.220;16.358;2023-04-25T05:54:33;3.87;;;3.47;;
79261;SDS011;68699;48.220;16.358;2023-04-25T05:56:59;3.87;;;3.10;;
79261;SDS011;68699;48.220;16.358;2023-04-25T05:59:27;3.83;;;3.00;;
79261;SDS011;68699;48.220;16.358;2023-04-25T06:01:53;3.00;;;2.80;;
79261;SDS011;68699;48.220;16.358;2023-04-25T06:04:19;2.97;;;2.73;;
79261;SDS011;68699;48.220;16.358;2023-04-25T06:06:46;3.33;;;3.03;;
79261;SDS011;68699;48.220;16.358;2023-04-25T06:09:12;3.30;;;2.93;;
79261;SDS011;68699;48.220;16.358;2023-04-25T06:11:38;3.10;;;2.90;;
79261;SDS011;68699;48.220;16.358;2023-04-25T06:14:05;3.40;;;3.17;;
79261;SDS011;68699;48.220;16.358;2023-04-25T06:16:31;3.40;;;3.10;;
79261;SDS011;68699;48.220;16.358;2023-04-25T06:18:58;4.07;;;3.20;;
79261;SDS011;68699;48.220;16.358;2023-04-25T06:21:24;3.37;;;2.67;;
79261;SDS011;68699;48.220;16.358;2023-04-25T06:23:50;3.17;;;2.80;;
79261;SDS011;68699;48.220;16.358;2023-04-25T06:26:16;4.00;;;2.80;;
79261;SDS011;68699;48.220;16.358;2023-04-25T06:28:43;3.40;;;2.83;;
79261;SDS011;68699;48.220;16.358;2023-04-25T06:31:09;3.50;;;2.63;;
79261;SDS011;68699;48.220;16.358;2023-04-25T06:33:35;2.73;;;2.53;;
79261;SDS011;68699;48.220;16.358;2023-04-25T06:36:01;2.73;;;2.50;;
79261;SDS011;68699;48.220;16.358;2023-04-25T06:38:28;3.20;;;2.90;;
79261;SDS011;68699;48.220;16.358;2023-04-25T06:40:54;3.00;;;2.73;;
79261;SDS011;68699;48.220;16.358;2023-04-25T06:43:20;3.20;;;2.80;;
79261;SDS011;68699;48.220;16.358;2023-04-25T06:45:46;2.70;;;2.50;;
79261;SDS011;68699;48.220;16.358;2023-04-25T06:48:12;2.90;;;2.60;;
79261;SDS011;68699;48.220;16.358;2023-04-25T06:50:38;2.80;;;2.60;;
79261;SDS011;68699;48.220;16.358;2023-04-25T06:53:05;2.80;;;2.30;;
79261;SDS011;68699;48.220;16.358;2023-04-25T06:55:31;2.50;;;2.30;;
79261;SDS011;68699;48.220;16.358;2023-04-25T06:57:57;4.03;;;2.57;;
79261;SDS011;68699;48.220;16.358;2023-04-25T07:00:23;2.60;;;2.40;;
79261;SDS011;68699;48.220;16.358;2023-04-25T07:02:50;2.67;;;2.47;;
79261;SDS011;68699;48.220;16.358;2023-04-25T07:05:19;3.33;;;2.57;;
79261;SDS011;68699;48.220;16.358;2023-04-25T07:07:46;2.80;;;2.60;;
79261;SDS011;68699;48.220;16.358;2023-04-25T07:10:12;3.00;;;2.80;;
79261;SDS011;68699;48.220;16.358;2023-04-25T07:12:38;4.43;;;3.20;;
79261;SDS011;68699;48.220;16.358;2023-04-25T07:15:05;3.17;;;2.93;;
79261;SDS011;68699;48.220;16.358;2023-04-25T07:17:33;3.43;;;3.10;;
79261;SDS011;68699;48.220;16.358;2023-04-25T07:19:59;3.20;;;2.90;;
79261;SDS011;68699;48.220;16.358;2023-04-25T07:22:25;3.20;;;2.90;;
79261;SDS011;68699;48.220;16.358;2023-04-25T07:24:51;2.60;;;2.40;;
79261;SDS011;68699;48.220;16.358;2023-04-25T07:27:18;2.97;;;2.70;;
79261;SDS011;68699;48.220;16.358;2023-04-25T07:29:44;3.47;;;3.07;;
79261;SDS011;68699;48.220;16.358;2023-04-25T07:32:11;3.10;;;2.90;;
79261;SDS011;68699;48.220;16.358;2023-04-25T07:34:39;3.13;;;2.83;;
79261;SDS011;68699;48.220;16.358;2023-04-25T07:37:06;3.30;;;3.00;;
79261;SDS011;68699;48.220;16.358;2023-04-25T07:39:35;2.63;;;2.43;;
79261;SDS011;68699;48.220;16.358;2023-04-25T07:42:02;3.37;;;3.17;;
79261;SDS011;68699;48.220;16.358;2023-04-25T07:44:29;3.43;;;3.07;;
79261;SDS011;68699;48.220;16.358;2023-04-25T07:47:03;2.93;;;2.73;;
79261;SDS011;68699;48.220;16.358;2023-04-25T07:49:29;3.00;;;2.70;;
79261;SDS011;68699;48.220;16.358;2023-04-25T07:51:56;2.90;;;2.70;;
79261;SDS011;68699;48.220;16.358;2023-04-25T07:54:22;3.40;;;2.60;;
79261;SDS011;68699;48.220;16.358;2023-04-25T07:56:48;2.80;;;2.60;;
79261;SDS011;68699;48.220;16.358;2023-04-25T07:59:14;2.77;;;2.57;;
79261;SDS011;68699;48.220;16.358;2023-04-25T08:01:40;3.23;;;3.00;;
79261;SDS011;68699;48.220;16.358;2023-04-25T08:04:06;3.70;;;2.90;;
79261;SDS011;68699;48.220;16.358;2023-04-25T08:06:33;2.90;;;2.70;;
79261;SDS011;68699;48.220;16.358;2023-04-25T08:08:59;2.83;;;2.57;;
79261;SDS011;68699;48.220;16.358;2023-04-25T08:11:25;3.43;;;3.00;;
79261;SDS011;68699;48.220;16.358;2023-04-25T08:13:51;3.10;;;2.90;;
79261;SDS011;68699;48.220;16.358;2023-04-25T08:16:17;3.23;;;2.90;;
79261;SDS011;68699;48.220;16.358;2023-04-25T08:18:43;3.27;;;2.97;;
79261;SDS011;68699;48.220;16.358;2023-04-25T08:21:10;3.27;;;3.03;;
79261;SDS011;68699;48.220;16.358;2023-04-25T08:23:37;3.20;;;3.00;;
79261;SDS011;68699;48.220;16.358;2023-04-25T08:26:03;2.73;;;2.53;;
79261;SDS011;68699;48.220;16.358;2023-04-25T08:28:30;2.80;;;2.60;;
79261;SDS011;68699;48.220;16.358;2023-04-25T08:30:56;3.90;;;3.20;;
79261;SDS011;68699;48.220;16.358;2023-04-25T08:33:22;2.80;;;2.60;;
79261;SDS011;68699;48.220;16.358;2023-04-25T08:35:48;3.10;;;2.90;;
79261;SDS011;68699;48.220;16.358;2023-04-25T08:38:15;3.53;;;2.80;;
79261;SDS011;68699;48.220;16.358;2023-04-25T08:40:41;3.07;;;2.87;;
79261;SDS011;68699;48.220;16.358;2023-04-25T08:43:09;3.20;;;2.90;;
79261;SDS011;68699;48.220;16.358;2023-04-25T08:45:39;2.80;;;2.60;;
79261;SDS011;68699;48.220;16.358;2023-04-25T08:48:07;2.90;;;2.70;;
79261;SDS011;68699;48.220;16.358;2023-04-25T08:50:37;3.20;;;2.90;;
79261;SDS011;68699;48.220;16.358;2023-04-25T08:53:05;2.87;;;2.67;;
79261;SDS011;68699;48.220;16.358;2023-04-25T08:55:32;3.10;;;2.80;;
79261;SDS011;68699;48.220;16.358;2023-04-25T08:57:59;3.20;;;2.80;;
79261;SDS011;68699;48.220;16.358;2023-04-25T09:00:26;2.90;;;2.70;;
79261;SDS011;68699;48.220;16.358;2023-04-25T09:02:52;2.80;;;2.60;;
79261;SDS011;68699;48.220;16.358;2023-04-25T09:05:18;2.50;;;2.30;;
79261;SDS011;68699;48.220;16.358;2023-04-25T09:07:45;2.53;;;2.30;;
79261;SDS011;68699;48.220;16.358;2023-04-25T09:10:11;3.53;;;2.60;;
79261;SDS011;68699;48.220;16.358;2023-04-25T09:12:37;2.53;;;2.33;;
79261;SDS011;68699;48.220;16.358;2023-04-25T09:15:07;3.13;;;2.90;;
79261;SDS011;68699;48.220;16.358;2023-04-25T09:17:34;2.67;;;2.47;;
79261;SDS011;68699;48.220;16.358;2023-04-25T09:20:07;2.73;;;2.53;;
79261;SDS011;68699;48.220;16.358;2023-04-25T09:22:33;3.00;;;2.80;;
79261;SDS011;68699;48.220;16.358;2023-04-25T09:25:01;3.23;;;2.53;;
79261;SDS011;68699;48.220;16.358;2023-04-25T09:27:28;3.10;;;2.80;;
79261;SDS011;68699;48.220;16.358;2023-04-25T09:29:58;2.80;;;2.60;;
79261;SDS011;68699;48.220;16.358;2023-04-25T09:32:25;2.67;;;2.53;;
79261;SDS011;68699;48.220;16.358;2023-04-25T09:34:52;3.27;;;2.53;;
79261;SDS011;68699;48.220;16.358;2023-04-25T09:37:22;3.70;;;3.20;;
79261;SDS011;68699;48.220;16.358;2023-04-25T09:39:49;4.57;;;3.47;;
79261;SDS011;68699;48.220;16.358;2023-04-25T09:42:16;5.07;;;3.60;;
79261;SDS011;68699;48.220;16.358;2023-04-25T09:44:43;4.43;;;3.13;;
79261;SDS011;68699;48.220;16.358;2023-04-25T09:47:10;4.00;;;3.17;;
79261;SDS011;68699;48.220;16.358;2023-04-25T09:49:41;4.30;;;2.70;;
79261;SDS011;68699;48.220;16.358;2023-04-25T09:52:08;2.90;;;2.27;;
79261;SDS011;68699;48.220;16.358;2023-04-25T09:54:34;2.20;;;2.10;;
79261;SDS011;68699;48.220;16.358;2023-04-25T09:57:12;3.23;;;1.90;;
79261;SDS011;68699;48.220;16.358;2023-04-25T09:59:39;2.63;;;1.83;;
79261;SDS011;68699;48.220;16.358;2023-04-25T10:02:06;2.33;;;1.60;;
79261;SDS011;68699;48.220;16.358;2023-04-25T10:04:34;1.60;;;1.50;;
79261;SDS011;68699;48.220;16.358;2023-04-25T10:07:02;3.87;;;1.67;;
79261;SDS011;68699;48.220;16.358;2023-04-25T10:09:29;1.53;;;1.40;;
79261;SDS011;68699;48.220;16.358;2023-04-25T10:11:58;1.37;;;1.30;;
79261;SDS011;68699;48.220;16.358;2023-04-25T10:14:26;2.00;;;1.57;;
79261;SDS011;68699;48.220;16.358;2023-04-25T10:16:53;1.90;;;1.30;;
79261;SDS011;68699;48.220;16.358;2023-04-25T10:19:20;1.30;;;1.20;;
79261;SDS011;68699;48.220;16.358;2023-04-25T10:21:48;3.40;;;1.53;;
79261;SDS011;68699;48.220;16.358;2023-04-25T10:24:15;1.70;;;1.60;;
79261;SDS011;68699;48.220;16.358;2023-04-25T10:26:42;3.20;;;1.57;;
79261;SDS011;68699;48.220;16.358;2023-04-25T10:29:08;1.57;;;1.23;;
79261;SDS011;68699;48.220;16.358;2023-04-25T10:31:37;3.37;;;1.43;;
79261;SDS011;68699;48.220;16.358;2023-04-25T10:34:10;1.63;;;1.50;;
79261;SDS011;68699;48.220;16.358;2023-04-25T10:36:36;1.77;;;1.50;;
79261;SDS011;68699;48.220;16.358;2023-04-25T10:39:05;2.60;;;1.37;;
79261;SDS011;68699;48.220;16.358;2023-04-25T10:41:56;2.43;;;1.43;;
79261;SDS011;68699;48.220;16.358;2023-04-25T10:44:20;1.60;;;1.30;;
79261;SDS011;68699;48.220;16.358;2023-04-25T10:46:46;2.20;;;1.43;;
79261;SDS011;68699;48.220;16.358;2023-04-25T10:49:28;1.60;;;1.50;;
79261;SDS011;68699;48.220;16.358;2023-04-25T10:52:13;1.37;;;1.27;;
79261;SDS011;68699;48.220;16.358;2023-04-25T10:54:41;1.50;;;1.40;;
79261;SDS011;68699;48.220;16.358;2023-04-25T10:57:07;1.70;;;1.60;;
79261;SDS011;68699;48.220;16.358;2023-04-25T10:59:33;1.97;;;1.70;;
79261;SDS011;68699;48.220;16.358;2023-04-25T11:01:59;1.67;;;1.57;;
79261;SDS011;68699;48.220;16.358;2023-04-25T11:04:37;2.23;;;1.50;;
79261;SDS011;68699;48.220;16.358;2023-04-25T11:09:33;1.90;;;1.80;;
79261;SDS011;68699;48.220;16.358;2023-04-25T11:12:00;2.87;;;1.77;;
79261;SDS011;68699;48.220;16.358;2023-04-25T11:14:26;1.70;;;1.60;;
79261;SDS011;68699;48.220;16.358;2023-04-25T11:16:53;2.00;;;1.50;;
79261;SDS011;68699;48.220;16.358;2023-04-25T11:19:20;1.67;;;1.57;;
79261;SDS011;68699;48.220;16.358;2023-04-25T11:21:47;1.73;;;1.60;;
79261;SDS011;68699;48.220;16.358;2023-04-25T11:24:13;2.00;;;1.60;;
79261;SDS011;68699;48.220;16.358;2023-04-25T11:26:43;1.43;;;1.33;;
79261;SDS011;68699;48.220;16.358;2023-04-25T11:29:09;1.37;;;1.27;;
79261;SDS011;68699;48.220;16.358;2023-04-25T11:31:35;1.50;;;1.40;;
79261;SDS011;68699;48.220;16.358;2023-04-25T11:34:01;2.03;;;1.50;;
79261;SDS011;68699;48.220;16.358;2023-04-25T11:36:28;1.40;;;1.20;;
79261;SDS011;68699;48.220;16.358;2023-04-25T11:38:56;1.43;;;1.33;;
79261;SDS011;68699;48.220;16.358;2023-04-25T11:47:33;2.97;;;1.77;;
79261;SDS011;68699;48.220;16.358;2023-04-25T11:50:00;2.60;;;1.90;;
79261;SDS011;68699;48.220;16.358;2023-04-25T11:52:39;2.43;;;1.60;;
79261;SDS011;68699;48.220;16.358;2023-04-25T11:55:09;2.43;;;1.63;;
79261;SDS011;68699;48.220;16.358;2023-04-25T11:57:35;3.27;;;1.70;;
79261;SDS011;68699;48.220;16.358;2023-04-25T12:00:10;1.80;;;1.70;;
79261;SDS011;68699;48.220;16.358;2023-04-25T12:02:41;1.73;;;1.60;;
79261;SDS011;68699;48.220;16.358;2023-04-25T12:05:08;1.60;;;1.50;;
79261;SDS011;68699;48.220;16.358;2023-04-25T12:07:34;2.17;;;1.97;;
79261;SDS011;68699;48.220;16.358;2023-04-25T12:10:08;1.77;;;1.43;;
79261;SDS011;68699;48.220;16.358;2023-04-25T12:12:35;2.43;;;1.50;;
79261;SDS011;68699;48.220;16.358;2023-04-25T12:15:11;1.43;;;1.30;;
79261;SDS011;68699;48.220;16.358;2023-04-25T12:17:40;1.77;;;1.23;;
79261;SDS011;68699;48.220;16.358;2023-04-25T12:20:10;1.77;;;1.30;;
79261;SDS011;68699;48.220;16.358;2023-04-25T12:22:37;1.93;;;1.27;;
79261;SDS011;68699;48.220;16.358;2023-04-25T12:25:03;1.53;;;1.20;;
79261;SDS011;68699;48.220;16.358;2023-04-25T12:27:30;1.20;;;1.17;;
79261;SDS011;68699;48.220;16.358;2023-04-25T12:29:57;2.70;;;1.30;;
79261;SDS011;68699;48.220;16.358;2023-04-25T12:32:23;1.93;;;1.20;;
79261;SDS011;68699;48.220;16.358;2023-04-25T12:34:50;5.33;;;1.50;;
79261;SDS011;68699;48.220;16.358;2023-04-25T12:37:16;1.93;;;1.23;;
79261;SDS011;68699;48.220;16.358;2023-04-25T12:39:43;2.13;;;1.10;;
79261;SDS011;68699;48.220;16.358;2023-04-25T12:42:09;1.00;;;1.00;;
79261;SDS011;68699;48.220;16.358;2023-04-25T12:44:39;2.33;;;1.20;;
79261;SDS011;68699;48.220;16.358;2023-04-25T12:47:06;1.10;;;1.10;;
79261;SDS011;68699;48.220;16.358;2023-04-25T12:49:32;0.93;;;0.90;;
79261;SDS011;68699;48.220;16.358;2023-04-25T12:51:59;1.27;;;1.10;;
79261;SDS011;68699;48.220;16.358;2023-04-25T12:54:25;2.43;;;1.33;;
79261;SDS011;68699;48.220;16.358;2023-04-25T12:56:51;1.97;;;1.23;;
79261;SDS011;68699;48.220;16.358;2023-04-25T12:59:17;1.27;;;1.17;;
79261;SDS011;68699;48.220;16.358;2023-04-25T13:01:45;1.73;;;1.30;;
79261;SDS011;68699;48.220;16.358;2023-04-25T13:04:11;3.03;;;1.30;;
79261;SDS011;68699;48.220;16.358;2023-04-25T13:06:37;1.10;;;1.10;;
79261;SDS011;68699;48.220;16.358;2023-04-25T13:09:03;1.43;;;1.20;;
79261;SDS011;68699;48.220;16.358;2023-04-25T13:11:30;1.30;;;1.20;;
79261;SDS011;68699;48.220;16.358;2023-04-25T13:13:56;1.17;;;1.03;;
79261;SDS011;68699;48.220;16.358;2023-04-25T13:16:22;1.17;;;1.07;;
79261;SDS011;68699;48.220;16.358;2023-04-25T13:18:48;1.20;;;1.00;;
79261;SDS011;68699;48.220;16.358;2023-04-25T13:21:15;1.10;;;1.00;;
79261;SDS011;68699;48.220;16.358;2023-04-25T13:23:41;1.23;;;1.10;;
79261;SDS011;68699;48.220;16.358;2023-04-25T13:26:11;0.80;;;0.80;;
79261;SDS011;68699;48.220;16.358;2023-04-25T13:28:41;1.10;;;1.10;;
79261;SDS011;68699;48.220;16.358;2023-04-25T13:31:07;0.90;;;0.90;;
79261;SDS011;68699;48.220;16.358;2023-04-25T13:33:33;0.90;;;0.90;;
79261;SDS011;68699;48.220;16.358;2023-04-25T13:36:00;0.90;;;0.90;;
79261;SDS011;68699;48.220;16.358;2023-04-25T13:38:26;1.23;;;1.00;;
79261;SDS011;68699;48.220;16.358;2023-04-25T13:40:53;1.03;;;0.90;;
79261;SDS011;68699;48.220;16.358;2023-04-25T13:43:20;1.47;;;1.00;;
79261;SDS011;68699;48.220;16.358;2023-04-25T13:45:49;0.90;;;0.90;;
79261;SDS011;68699;48.220;16.358;2023-04-25T13:48:17;1.13;;;0.80;;
79261;SDS011;68699;48.220;16.358;2023-04-25T13:50:44;1.20;;;1.10;;
79261;SDS011;68699;48.220;16.358;2023-04-25T13:53:11;1.20;;;1.10;;
79261;SDS011;68699;48.220;16.358;2023-04-25T13:55:39;1.13;;;1.10;;
79261;SDS011;68699;48.220;16.358;2023-04-25T13:58:05;1.43;;;1.20;;
79261;SDS011;68699;48.220;16.358;2023-04-25T14:00:35;1.80;;;1.10;;
79261;SDS011;68699;48.220;16.358;2023-04-25T14:03:03;2.03;;;1.40;;
79261;SDS011;68699;48.220;16.358;2023-04-25T14:05:32;2.43;;;1.40;;
79261;SDS011;68699;48.220;16.358;2023-04-25T14:08:03;2.47;;;1.10;;
79261;SDS011;68699;48.220;16.358;2023-04-25T14:10:29;1.33;;;1.00;;
79261;SDS011;68699;48.220;16.358;2023-04-25T14:12:55;1.13;;;0.80;;
79261;SDS011;68699;48.220;16.358;2023-04-25T14:15:22;1.37;;;0.97;;
79261;SDS011;68699;48.220;16.358;2023-04-25T14:17:48;1.80;;;0.90;;
79261;SDS011;68699;48.220;16.358;2023-04-25T14:20:14;1.57;;;1.10;;
79261;SDS011;68699;48.220;16.358;2023-04-25T14:22:41;1.83;;;1.00;;
79261;SDS011;68699;48.220;16.358;2023-04-25T14:25:08;2.93;;;1.00;;
79261;SDS011;68699;48.220;16.358;2023-04-25T14:27:35;1.10;;;1.00;;
79261;SDS011;68699;48.220;16.358;2023-04-25T14:30:01;1.23;;;0.87;;
79261;SDS011;68699;48.220;16.358;2023-04-25T14:32:27;1.50;;;1.10;;
79261;SDS011;68699;48.220;16.358;2023-04-25T14:34:54;1.50;;;1.00;;
79261;SDS011;68699;48.220;16.358;2023-04-25T14:37:20;2.53;;;1.00;;
79261;SDS011;68699;48.220;16.358;2023-04-25T14:39:46;1.17;;;1.03;;